createdAt,value
2022-08-19T00:02:50.314Z,101293.41
2022-08-19T00:05:54.095Z,101292.69
2022-08-19T00:09:01.764Z,101297.44
2022-08-19T00:12:06.264Z,101302.34
2022-08-19T00:15:15.723Z,101301.31
2022-08-19T00:18:19.331Z,101295.88
2022-08-19T00:21:23.174Z,101287.75
2022-08-19T00:24:29.740Z,101292.97
2022-08-19T00:27:33.883Z,101302.19
2022-08-19T00:30:37.799Z,101298.63
2022-08-19T00:33:41.792Z,101294.00
2022-08-19T00:36:46.115Z,101298.97
2022-08-19T00:39:51.978Z,101303.94
2022-08-19T00:42:55.893Z,101304.38
2022-08-19T00:45:59.685Z,101294.69
2022-08-19T00:49:08.671Z,101294.59
2022-08-19T00:52:18.759Z,101299.50
2022-08-19T00:55:29.822Z,101297.13
2022-08-19T00:58:37.592Z,101293.84
2022-08-19T01:01:45.626Z,101303.34
2022-08-19T01:04:49.298Z,101297.97
2022-08-19T01:07:53.968Z,101290.28
2022-08-19T01:11:02.143Z,101294.19
2022-08-19T01:14:07.508Z,101292.31
2022-08-19T01:17:13.589Z,101288.72
2022-08-19T01:20:22.398Z,101282.72
2022-08-19T01:23:43.510Z,101277.34
2022-08-19T01:26:48.258Z,101265.72
2022-08-19T01:29:52.812Z,101269.56
2022-08-19T01:32:57.714Z,101267.84
2022-08-19T01:36:09.518Z,101263.41
2022-08-19T01:39:19.202Z,101248.69
2022-08-19T01:42:29.020Z,101247.06
2022-08-19T01:45:36.516Z,101237.91
2022-08-19T01:48:44.762Z,101246.81
2022-08-19T01:51:50.503Z,101245.69
2022-08-19T01:54:55.535Z,101243.31
2022-08-19T01:58:04.964Z,101240.75
2022-08-19T02:01:10.295Z,101233.72
2022-08-19T02:04:14.056Z,101241.50
2022-08-19T02:07:17.732Z,101236.72
2022-08-19T02:10:24.994Z,101243.03
2022-08-19T02:13:29.696Z,101235.09
2022-08-19T02:16:35.589Z,101233.38
2022-08-19T02:19:41.010Z,101225.59
2022-08-19T02:22:45.958Z,101221.16
2022-08-19T02:25:51.228Z,101215.06
2022-08-19T02:28:56.201Z,101206.47
2022-08-19T02:31:59.911Z,101202.69
2022-08-19T02:35:04.456Z,101206.28
2022-08-19T02:38:28.396Z,101206.09
2022-08-19T02:41:36.350Z,101201.72
2022-08-19T02:44:40.101Z,101202.59
2022-08-19T02:47:44.183Z,101213.44
2022-08-19T02:50:51.933Z,101215.00
2022-08-19T02:53:57.676Z,101217.81
2022-08-19T02:57:02.802Z,101210.78
2022-08-19T03:00:09.459Z,101214.16
2022-08-19T03:03:13.149Z,101200.06
2022-08-19T03:06:19.002Z,101204.56
2022-08-19T03:09:23.027Z,101205.41
2022-08-19T03:12:28.065Z,101202.84
2022-08-19T03:15:31.739Z,101200.97
2022-08-19T03:18:35.266Z,101204.22
2022-08-19T03:21:39.256Z,101219.28
2022-08-19T03:24:43.563Z,101237.16
2022-08-19T03:27:50.043Z,101237.06
2022-08-19T03:31:02.790Z,101234.91
2022-08-19T03:34:08.187Z,101237.75
2022-08-19T03:37:14.318Z,101232.63
2022-08-19T03:40:19.980Z,101227.13
2022-08-19T03:43:25.583Z,101227.91
2022-08-19T03:46:31.653Z,101221.84
2022-08-19T03:49:36.927Z,101229.88
2022-08-19T03:52:40.683Z,101231.44
2022-08-19T03:55:49.065Z,101240.75
2022-08-19T03:58:54.747Z,101244.75
2022-08-19T04:02:01.641Z,101252.72
2022-08-19T04:05:06.580Z,101254.59
2022-08-19T04:08:13.759Z,101251.94
2022-08-19T04:11:22.692Z,101240.56
2022-08-19T04:14:47.698Z,101240.03
2022-08-19T04:17:51.390Z,101241.59
2022-08-19T04:20:55.001Z,101256.28
2022-08-19T04:23:59.858Z,101261.94
2022-08-19T04:27:05.162Z,101257.41
2022-08-19T04:30:12.209Z,101255.88
2022-08-19T04:33:19.697Z,101251.66
2022-08-19T04:36:36.079Z,101249.00
2022-08-19T04:39:58.791Z,101257.75
2022-08-19T04:43:06.204Z,101248.25
2022-08-19T04:46:28.517Z,101251.09
2022-08-19T04:49:37.904Z,101242.53
2022-08-19T04:52:44.038Z,101248.84
2022-08-19T04:55:47.746Z,101256.88
2022-08-19T04:58:53.082Z,101259.22
2022-08-19T05:01:58.010Z,101267.00
2022-08-19T05:05:02.408Z,101258.59
2022-08-19T05:08:06.979Z,101257.13
2022-08-19T05:11:14.925Z,101259.63
2022-08-19T05:14:18.642Z,101270.91
2022-08-19T05:17:27.671Z,101262.53
2022-08-19T05:20:50.232Z,101273.28
2022-08-19T05:23:53.831Z,101271.88
2022-08-19T05:26:59.023Z,101271.81
2022-08-19T05:30:03.138Z,101271.41
2022-08-19T05:33:10.435Z,101267.28
2022-08-19T05:36:14.404Z,101271.13
2022-08-19T05:39:21.478Z,101276.41
2022-08-19T05:42:25.398Z,101277.53
2022-08-19T05:45:30.017Z,101283.19
2022-08-19T05:48:35.037Z,101275.34
2022-08-19T05:51:39.499Z,101262.00
2022-08-19T05:54:44.279Z,101253.47
2022-08-19T05:57:48.460Z,101259.53
2022-08-19T06:00:53.500Z,101265.09
2022-08-19T06:03:58.607Z,101259.97
2022-08-19T06:07:12.704Z,101262.28
2022-08-19T06:10:17.103Z,101264.88
2022-08-19T06:13:21.049Z,101277.09
2022-08-19T06:16:25.167Z,101273.59
2022-08-19T06:19:33.166Z,101283.00
2022-08-19T06:22:41.531Z,101265.81
2022-08-19T06:25:45.183Z,101267.59
2022-08-19T06:28:50.603Z,101267.19
2022-08-19T06:31:59.429Z,101269.81
2022-08-19T06:35:04.654Z,101288.50
2022-08-19T06:38:08.284Z,101278.50
2022-08-19T06:41:12.325Z,101289.78
2022-08-19T06:44:17.098Z,101282.25
2022-08-19T06:47:28.964Z,101278.66
2022-08-19T06:50:34.186Z,101278.84
2022-08-19T06:53:41.305Z,101280.06
2022-08-19T06:56:46.848Z,101281.59
2022-08-19T06:59:50.711Z,101286.81
2022-08-19T07:02:58.665Z,101289.19
2022-08-19T07:06:09.852Z,101288.09
2022-08-19T07:09:25.095Z,101290.06
2022-08-19T07:12:30.817Z,101297.00
2022-08-19T07:15:34.774Z,101300.31
2022-08-19T07:18:40.580Z,101310.38
2022-08-19T07:21:53.661Z,101311.88
2022-08-19T07:24:57.408Z,101306.66
2022-08-19T07:28:01.567Z,101306.97
2022-08-19T07:31:05.432Z,101314.47
2022-08-19T07:34:12.863Z,101317.41
2022-08-19T07:37:18.518Z,101321.66
2022-08-19T07:40:22.327Z,101330.28
2022-08-19T07:43:31.433Z,101334.09
2022-08-19T07:46:47.329Z,101341.13
2022-08-19T07:49:53.015Z,101343.19
2022-08-19T07:52:58.046Z,101350.72
2022-08-19T07:56:05.151Z,101343.09
2022-08-19T07:59:10.231Z,101351.94
2022-08-19T08:02:14.022Z,101358.66
2022-08-19T08:05:35.747Z,101348.50
2022-08-19T08:08:58.105Z,101343.00
2022-08-19T08:12:32.779Z,101343.41
2022-08-19T08:15:46.282Z,101342.72
2022-08-19T08:18:50.541Z,101349.88
2022-08-19T08:21:59.325Z,101347.50
2022-08-19T08:25:08.714Z,101347.38
2022-08-19T08:28:17.531Z,101354.31
2022-08-19T08:31:22.191Z,101350.22
2022-08-19T08:34:26.119Z,101359.19
2022-08-19T08:37:29.804Z,101360.41
2022-08-19T08:40:46.714Z,101357.56
2022-08-19T08:43:54.451Z,101359.81
2022-08-19T08:47:07.888Z,101367.66
2022-08-19T08:50:20.338Z,101370.16
2022-08-19T08:53:29.719Z,101360.91
2022-08-19T08:56:36.884Z,101368.06
2022-08-19T08:59:45.495Z,101372.59
2022-08-19T09:02:50.782Z,101368.56
2022-08-19T09:06:03.542Z,101362.63
2022-08-19T09:09:18.877Z,101360.66
2022-08-19T09:12:35.303Z,101367.84
2022-08-19T09:15:47.573Z,101374.41
2022-08-19T09:18:55.390Z,101362.56
2022-08-19T09:22:01.672Z,101355.69
2022-08-19T09:25:06.973Z,101352.97
2022-08-19T09:28:15.233Z,101337.38
2022-08-19T09:31:30.535Z,101346.38
2022-08-19T09:34:37.972Z,101344.28
2022-08-19T09:37:47.685Z,101348.22
2022-08-19T09:40:51.644Z,101341.03
2022-08-19T09:43:59.061Z,101335.38
2022-08-19T09:47:02.921Z,101348.63
2022-08-19T09:50:08.719Z,101342.38
2022-08-19T09:53:12.363Z,101342.47
2022-08-19T09:56:16.791Z,101352.88
2022-08-19T09:59:24.830Z,101345.50
2022-08-19T10:02:28.905Z,101342.66
2022-08-19T10:05:55.475Z,101345.63
2022-08-19T10:08:59.462Z,101334.59
2022-08-19T10:12:04.636Z,101336.75
2022-08-19T10:15:13.411Z,101325.31
2022-08-19T10:18:19.260Z,101317.16
2022-08-19T10:21:27.934Z,101320.06
2022-08-19T10:24:31.824Z,101314.53
2022-08-19T10:27:36.027Z,101320.53
2022-08-19T10:30:42.881Z,101324.41
2022-08-19T10:33:53.629Z,101320.53
2022-08-19T10:37:00.983Z,101326.41
2022-08-19T10:40:08.734Z,101323.75
2022-08-19T10:43:12.476Z,101309.63
2022-08-19T10:46:18.277Z,101308.75
2022-08-19T10:49:23.899Z,101296.34
2022-08-19T10:52:35.446Z,101293.56
2022-08-19T10:56:11.415Z,101290.59
2022-08-19T10:59:15.682Z,101302.75
2022-08-19T11:02:20.780Z,101306.22
2022-08-19T11:05:24.626Z,101311.28
2022-08-19T11:08:28.532Z,101308.13
2022-08-19T11:11:33.143Z,101294.47
2022-08-19T11:14:42.072Z,101309.47
2022-08-19T11:17:47.071Z,101305.22
2022-08-19T11:20:50.714Z,101296.66
2022-08-19T11:23:58.036Z,101295.66
2022-08-19T11:27:07.267Z,101301.88
2022-08-19T11:30:13.628Z,101295.31
2022-08-19T11:33:19.329Z,101294.25
2022-08-19T11:36:24.194Z,101295.75
2022-08-19T11:39:31.774Z,101286.34
2022-08-19T11:42:53.144Z,101287.41
2022-08-19T11:45:57.357Z,101279.53
2022-08-19T11:49:04.348Z,101281.50
2022-08-19T11:52:08.639Z,101284.59
2022-08-19T11:55:12.641Z,101262.28
2022-08-19T11:58:19.408Z,101274.47
2022-08-19T12:01:26.138Z,101265.56
2022-08-19T12:04:31.223Z,101269.81
2022-08-19T12:07:37.989Z,101264.28
2022-08-19T12:10:43.190Z,101257.28
2022-08-19T12:13:47.301Z,101260.16
2022-08-19T12:16:51.444Z,101249.50
2022-08-19T12:19:57.957Z,101252.56
2022-08-19T12:23:05.041Z,101242.09
2022-08-19T12:26:09.127Z,101242.13
2022-08-19T12:29:12.743Z,101242.38
2022-08-19T12:32:17.916Z,101249.75
2022-08-19T12:35:23.656Z,101250.88
2022-08-19T12:38:30.004Z,101253.19
2022-08-19T12:41:33.617Z,101259.66
2022-08-19T12:44:38.194Z,101254.50
2022-08-19T12:47:45.365Z,101241.91
2022-08-19T12:50:52.610Z,101236.25
2022-08-19T12:57:18.526Z,101221.09
2022-08-19T13:00:24.351Z,101221.66
2022-08-19T13:03:30.374Z,101235.38
2022-08-19T13:06:35.363Z,101232.19
2022-08-19T13:09:38.989Z,101235.41
2022-08-19T13:12:43.119Z,101231.50
2022-08-19T13:15:47.235Z,101232.34
2022-08-19T13:18:52.932Z,101247.28
2022-08-19T13:22:00.364Z,101234.31
2022-08-19T13:25:04.532Z,101234.19
2022-08-19T13:28:08.177Z,101231.28
2022-08-19T13:31:36.586Z,101227.41
2022-08-19T13:34:40.465Z,101228.34
2022-08-19T13:37:46.493Z,101234.34
2022-08-19T13:40:52.500Z,101230.00
2022-08-19T13:43:56.320Z,101231.13
2022-08-19T13:47:07.953Z,101223.75
2022-08-19T13:50:13.855Z,101223.59
2022-08-19T13:53:19.752Z,101226.13
2022-08-19T13:56:26.317Z,101221.09
2022-08-19T13:59:30.304Z,101221.25
2022-08-19T14:02:33.923Z,101221.31
2022-08-19T14:05:40.498Z,101216.25
2022-08-19T14:08:46.334Z,101219.38
2022-08-19T14:11:51.888Z,101220.78
2022-08-19T14:14:55.516Z,101207.88
2022-08-19T14:17:59.832Z,101210.88
2022-08-19T14:21:04.059Z,101203.50
2022-08-19T14:24:09.472Z,101206.03
2022-08-19T14:27:13.247Z,101200.25
2022-08-19T14:30:22.212Z,101200.38
2022-08-19T14:33:28.468Z,101206.03
2022-08-19T14:36:38.937Z,101210.28
2022-08-19T14:39:45.655Z,101217.38
2022-08-19T14:42:50.181Z,101220.22
2022-08-19T14:45:53.880Z,101218.63
2022-08-19T14:48:59.883Z,101213.72
2022-08-19T14:52:04.939Z,101216.53
2022-08-19T14:55:11.424Z,101219.63
2022-08-19T14:58:28.833Z,101219.06
2022-08-19T15:01:34.049Z,101220.50
2022-08-19T15:04:37.724Z,101224.44
2022-08-19T15:07:41.925Z,101224.16
2022-08-19T15:10:48.715Z,101221.91
2022-08-19T15:13:53.987Z,101225.88
2022-08-19T15:16:57.561Z,101231.50
2022-08-19T15:20:01.633Z,101230.66
2022-08-19T15:23:05.444Z,101238.28
2022-08-19T15:26:14.262Z,101240.44
2022-08-19T15:29:19.928Z,101242.53
2022-08-19T15:32:24.247Z,101241.13
2022-08-19T15:35:28.200Z,101246.50
2022-08-19T15:38:34.464Z,101234.34
2022-08-19T15:41:45.312Z,101237.16
2022-08-19T15:44:49.131Z,101238.56
2022-08-19T15:47:54.183Z,101234.19
2022-08-19T15:50:57.959Z,101241.13
2022-08-19T15:54:02.915Z,101238.88
2022-08-19T15:57:25.254Z,101236.47
2022-08-19T16:00:46.570Z,101234.22
2022-08-19T16:04:16.576Z,101227.00
2022-08-19T16:07:22.307Z,101244.81
2022-08-19T16:10:28.218Z,101238.72
2022-08-19T16:13:33.534Z,101229.69
2022-08-19T16:16:39.835Z,101231.66
2022-08-19T16:19:43.628Z,101234.59
2022-08-19T16:22:47.324Z,101228.69
2022-08-19T16:25:51.266Z,101223.69
2022-08-19T16:28:57.311Z,101225.72
2022-08-19T16:32:01.138Z,101228.91
2022-08-19T16:35:07.908Z,101233.72
2022-08-19T16:38:11.589Z,101237.09
2022-08-19T16:41:15.471Z,101239.06
2022-08-19T16:44:21.311Z,101239.59
2022-08-19T16:47:24.935Z,101238.72
2022-08-19T16:50:48.150Z,101231.81
2022-08-19T16:53:53.741Z,101236.44
2022-08-19T16:56:57.319Z,101237.53
2022-08-19T17:00:05.501Z,101244.00
2022-08-19T17:03:14.922Z,101250.06
2022-08-19T17:06:24.125Z,101253.34
2022-08-19T17:09:27.863Z,101261.44
2022-08-19T17:12:37.671Z,101257.53
2022-08-19T17:15:43.639Z,101252.09
2022-08-19T17:18:52.295Z,101251.19
2022-08-19T17:21:57.828Z,101254.22
2022-08-19T17:25:01.512Z,101257.59
2022-08-19T17:28:09.161Z,101255.00
2022-08-19T17:31:15.249Z,101262.53
2022-08-19T17:34:19.065Z,101261.72
2022-08-19T17:37:24.170Z,101265.50
2022-08-19T17:40:29.916Z,101259.56
2022-08-19T17:43:40.091Z,101257.28
2022-08-19T17:46:49.281Z,101249.59
2022-08-19T17:49:53.472Z,101246.94
2022-08-19T17:52:57.807Z,101247.19
2022-08-19T17:56:01.410Z,101239.81
2022-08-19T17:59:05.670Z,101242.28
2022-08-19T18:02:13.881Z,101238.28
2022-08-19T18:05:33.155Z,101238.50
2022-08-19T18:08:38.885Z,101240.13
2022-08-19T18:11:43.919Z,101237.22
2022-08-19T18:14:48.636Z,101229.56
2022-08-19T18:17:53.993Z,101230.56
2022-08-19T18:20:58.122Z,101231.06
2022-08-19T18:24:02.146Z,101222.78
2022-08-19T18:27:06.943Z,101228.84
2022-08-19T18:30:12.473Z,101225.84
2022-08-19T18:33:17.485Z,101224.50
2022-08-19T18:36:49.981Z,101224.38
2022-08-19T18:40:03.860Z,101231.28
2022-08-19T18:43:25.250Z,101237.13
2022-08-19T18:46:57.999Z,101232.72
2022-08-19T18:50:08.327Z,101240.41
2022-08-19T18:53:16.435Z,101240.88
2022-08-19T18:56:23.983Z,101249.69
2022-08-19T18:59:30.376Z,101245.25
2022-08-19T19:02:40.044Z,101237.00
2022-08-19T19:05:45.543Z,101239.25
2022-08-19T19:08:50.458Z,101241.63
2022-08-19T19:11:59.041Z,101243.91
2022-08-19T19:15:05.998Z,101238.59
2022-08-19T19:18:09.763Z,101237.34
2022-08-19T19:21:14.737Z,101237.16
2022-08-19T19:24:22.567Z,101242.22
2022-08-19T19:27:27.290Z,101240.53
2022-08-19T19:30:31.394Z,101249.38
2022-08-19T19:33:35.112Z,101245.09
2022-08-19T19:36:40.408Z,101253.09
2022-08-19T19:39:46.347Z,101257.81
2022-08-19T19:42:52.019Z,101258.88
2022-08-19T19:45:55.984Z,101259.22
2022-08-19T19:49:00.474Z,101269.44
2022-08-19T19:52:07.731Z,101271.50
2022-08-19T19:55:19.284Z,101282.41
2022-08-19T19:58:28.931Z,101286.13
2022-08-19T20:01:32.954Z,101295.16
2022-08-19T20:04:37.502Z,101290.06
2022-08-19T20:07:59.732Z,101286.09
2022-08-19T20:11:07.024Z,101285.53
2022-08-19T20:14:15.435Z,101284.06
2022-08-19T20:17:20.696Z,101287.69
2022-08-19T20:20:24.407Z,101289.59
2022-08-19T20:23:29.477Z,101287.25
2022-08-19T20:26:33.816Z,101287.66
2022-08-19T20:29:44.334Z,101290.59
2022-08-19T20:32:50.211Z,101291.75
2022-08-19T20:35:54.440Z,101298.25
2022-08-19T20:39:00.085Z,101298.34
2022-08-19T20:42:03.711Z,101302.28
2022-08-19T20:45:09.908Z,101304.19
2022-08-19T20:48:32.627Z,101304.41
2022-08-19T20:51:36.244Z,101313.53
2022-08-19T20:54:43.340Z,101319.69
2022-08-19T20:57:46.931Z,101316.09
2022-08-19T21:00:52.443Z,101317.97
2022-08-19T21:03:56.184Z,101321.78
2022-08-19T21:07:00.252Z,101330.50
2022-08-19T21:10:06.894Z,101329.88
2022-08-19T21:13:10.522Z,101332.56
2022-08-19T21:16:14.279Z,101328.38
2022-08-19T21:19:22.043Z,101332.75
2022-08-19T21:22:27.603Z,101330.84
2022-08-19T21:25:32.703Z,101333.78
2022-08-19T21:28:37.802Z,101336.75
2022-08-19T21:31:41.689Z,101341.31
2022-08-19T21:34:46.986Z,101339.63
2022-08-19T21:37:50.681Z,101338.63
2022-08-19T21:40:56.226Z,101334.88
2022-08-19T21:43:59.846Z,101338.09
2022-08-19T21:47:04.615Z,101345.72
2022-08-19T21:50:10.724Z,101336.97
2022-08-19T21:53:17.629Z,101347.13
2022-08-19T21:56:23.351Z,101352.31
2022-08-19T21:59:27.043Z,101350.06
2022-08-19T22:02:31.147Z,101347.94
2022-08-19T22:05:35.711Z,101352.44
2022-08-19T22:08:42.253Z,101357.66
2022-08-19T22:11:47.347Z,101361.44
2022-08-19T22:14:52.585Z,101365.41
2022-08-19T22:18:01.306Z,101372.25
2022-08-19T22:21:11.268Z,101364.66
2022-08-19T22:24:15.539Z,101372.63
2022-08-19T22:27:21.709Z,101369.00
2022-08-19T22:30:33.509Z,101365.78
2022-08-19T22:33:38.419Z,101370.63
2022-08-19T22:36:42.164Z,101374.50
2022-08-19T22:39:45.885Z,101369.19
2022-08-19T22:43:00.169Z,101379.09
2022-08-19T22:46:06.503Z,101377.81
2022-08-19T22:49:21.230Z,101384.19
2022-08-19T22:52:23.856Z,101376.78
2022-08-19T22:55:28.846Z,101383.81
2022-08-19T22:58:34.247Z,101379.34
2022-08-19T23:01:39.056Z,101377.66
2022-08-19T23:04:42.673Z,101366.91
2022-08-19T23:07:52.084Z,101368.63
2022-08-19T23:10:56.659Z,101371.66
2022-08-19T23:14:01.690Z,101371.44
2022-08-19T23:17:06.120Z,101364.25
2022-08-19T23:20:14.400Z,101356.84
2022-08-19T23:23:19.871Z,101358.94
2022-08-19T23:26:23.724Z,101355.50
2022-08-19T23:29:46.320Z,101361.22
2022-08-19T23:32:52.530Z,101366.53
2022-08-19T23:35:59.656Z,101367.53
2022-08-19T23:39:03.449Z,101359.13
2022-08-19T23:42:12.538Z,101360.63
2022-08-19T23:45:27.432Z,101362.44
2022-08-19T23:48:33.085Z,101365.25
2022-08-19T23:51:36.768Z,101365.53
2022-08-19T23:54:43.376Z,101356.88
2022-08-19T23:57:47.714Z,101357.56
